createdAt,value
2022-09-03T00:00:05.003Z,2.58
2022-09-03T00:02:37.169Z,2.73
2022-09-03T00:05:08.276Z,2.63
2022-09-03T00:07:38.671Z,2.80
2022-09-03T00:10:10.510Z,2.70
2022-09-03T00:12:40.591Z,2.73
2022-09-03T00:15:12.451Z,2.70
2022-09-03T00:17:43.087Z,2.70
2022-09-03T00:20:14.419Z,2.40
2022-09-03T00:22:45.578Z,2.90
2022-09-03T00:25:16.732Z,2.70
2022-09-03T00:27:47.212Z,2.77
2022-09-03T00:30:18.025Z,3.40
2022-09-03T00:32:47.863Z,2.60
2022-09-03T00:35:18.895Z,2.73
2022-09-03T00:37:48.527Z,2.73
2022-09-03T00:40:26.025Z,2.63
2022-09-03T00:42:59.355Z,4.27
2022-09-03T00:45:33.996Z,4.07
2022-09-03T00:48:11.331Z,4.40
2022-09-03T00:50:46.100Z,4.82
2022-09-03T00:53:19.132Z,4.77
2022-09-03T00:55:52.795Z,4.93
2022-09-03T00:58:36.074Z,4.53
2022-09-03T01:01:11.841Z,4.30
2022-09-03T01:03:43.343Z,4.47
2022-09-03T01:06:16.606Z,4.30
2022-09-03T01:09:05.426Z,3.93
2022-09-03T01:11:45.433Z,3.90
2022-09-03T01:14:18.074Z,4.27
2022-09-03T01:16:51.661Z,4.20
2022-09-03T01:19:37.953Z,4.03
2022-09-03T01:22:20.250Z,3.90
2022-09-03T01:25:03.263Z,3.63
2022-09-03T01:27:38.845Z,4.13
2022-09-03T01:30:11.302Z,4.53
2022-09-03T01:32:43.961Z,4.30
2022-09-03T01:35:16.485Z,4.30
2022-09-03T01:37:49.510Z,4.40
2022-09-03T01:40:20.779Z,4.30
2022-09-03T01:42:54.418Z,4.40
2022-09-03T01:45:51.306Z,4.10
2022-09-03T01:48:30.578Z,3.93
2022-09-03T01:51:04.932Z,3.97
2022-09-03T01:53:40.998Z,4.57
2022-09-03T01:56:17.420Z,4.97
2022-09-03T01:58:47.906Z,4.63
2022-09-03T02:01:21.018Z,4.30
2022-09-03T02:03:51.084Z,4.60
2022-09-03T02:06:20.718Z,5.50
2022-09-03T02:08:49.160Z,4.90
2022-09-03T02:11:17.619Z,4.80
2022-09-03T02:13:47.899Z,5.07
2022-09-03T02:16:20.323Z,5.23
2022-09-03T02:18:50.705Z,4.30
2022-09-03T02:21:20.965Z,5.30
2022-09-03T02:23:50.137Z,5.00
2022-09-03T02:26:20.394Z,5.27
2022-09-03T02:28:48.898Z,5.03
2022-09-03T02:31:19.014Z,4.70
2022-09-03T02:33:48.452Z,5.00
2022-09-03T02:36:18.611Z,5.07
2022-09-03T02:38:47.720Z,4.50
2022-09-03T02:41:16.347Z,4.07
2022-09-03T02:43:47.920Z,3.90
2022-09-03T02:46:18.942Z,3.83
2022-09-03T02:48:49.143Z,3.13
2022-09-03T02:51:17.634Z,3.30
2022-09-03T02:53:46.223Z,2.83
2022-09-03T02:56:14.704Z,3.27
2022-09-03T02:58:43.107Z,3.73
2022-09-03T03:01:11.777Z,4.50
2022-09-03T03:03:49.498Z,4.67
2022-09-03T03:06:20.929Z,4.63
2022-09-03T03:08:50.033Z,4.20
2022-09-03T03:11:19.923Z,4.27
2022-09-03T03:13:48.782Z,4.73
2022-09-03T03:16:18.029Z,3.93
2022-09-03T03:18:47.097Z,4.13
2022-09-03T03:21:17.968Z,4.90
2022-09-03T03:23:46.784Z,4.80
2022-09-03T03:26:17.809Z,4.63
2022-09-03T03:28:47.005Z,4.77
2022-09-03T03:31:16.625Z,4.37
2022-09-03T03:33:45.244Z,4.10
2022-09-03T03:36:14.406Z,4.30
2022-09-03T03:38:45.567Z,4.40
2022-09-03T03:41:15.777Z,3.93
2022-09-03T03:43:44.397Z,3.87
2022-09-03T03:46:13.273Z,3.83
2022-09-03T03:48:41.913Z,3.40
2022-09-03T03:51:11.582Z,2.80
2022-09-03T03:53:40.586Z,2.60
2022-09-03T03:56:10.982Z,2.93
2022-09-03T03:58:44.130Z,3.13
2022-09-03T04:01:13.388Z,3.13
2022-09-03T04:03:42.377Z,3.07
2022-09-03T04:06:11.653Z,2.30
2022-09-03T04:08:41.034Z,2.43
2022-09-03T04:11:11.688Z,2.30
2022-09-03T04:13:40.883Z,2.00
2022-09-03T04:16:10.195Z,2.30
2022-09-03T04:18:39.039Z,2.43
2022-09-03T04:21:08.749Z,2.40
2022-09-03T04:23:38.758Z,2.20
2022-09-03T04:26:07.720Z,1.87
2022-09-03T04:28:37.866Z,2.63
2022-09-03T04:31:07.181Z,2.30
2022-09-03T04:33:38.165Z,2.43
2022-09-03T04:36:07.306Z,2.27
2022-09-03T04:38:36.206Z,2.67
2022-09-03T04:41:04.931Z,2.23
2022-09-03T04:43:33.482Z,2.20
2022-09-03T04:46:04.115Z,2.53
2022-09-03T04:48:33.799Z,2.30
2022-09-03T04:51:06.008Z,2.17
2022-09-03T04:53:35.502Z,2.50
2022-09-03T04:56:04.203Z,2.40
2022-09-03T04:58:32.711Z,2.10
2022-09-03T05:01:09.052Z,2.60
2022-09-03T05:03:38.693Z,2.53
2022-09-03T05:06:08.266Z,2.00
2022-09-03T05:08:36.850Z,2.00
2022-09-03T05:11:06.027Z,2.13
2022-09-03T05:13:34.764Z,2.50
2022-09-03T05:16:05.974Z,2.53
2022-09-03T05:18:35.791Z,2.20
2022-09-03T05:21:05.008Z,2.30
2022-09-03T05:23:37.557Z,2.00
2022-09-03T05:26:11.037Z,2.10
2022-09-03T05:28:40.625Z,2.33
2022-09-03T05:31:11.646Z,2.50
2022-09-03T05:33:40.783Z,2.30
2022-09-03T05:36:10.127Z,2.00
2022-09-03T05:38:38.936Z,2.10
2022-09-03T05:41:08.119Z,2.37
2022-09-03T05:43:37.410Z,2.13
2022-09-03T05:46:07.434Z,2.23
2022-09-03T05:48:38.420Z,2.27
2022-09-03T05:51:08.189Z,2.63
2022-09-03T05:53:37.325Z,2.30
2022-09-03T05:56:07.158Z,2.20
2022-09-03T05:58:36.812Z,2.40
2022-09-03T06:01:11.587Z,2.50
2022-09-03T06:03:41.945Z,2.30
2022-09-03T06:06:11.133Z,2.50
2022-09-03T06:08:39.779Z,2.53
2022-09-03T06:11:08.435Z,2.80
2022-09-03T06:13:37.230Z,3.00
2022-09-03T06:16:06.480Z,3.47
2022-09-03T06:18:35.092Z,3.07
2022-09-03T06:21:05.895Z,3.37
2022-09-03T06:23:35.052Z,3.20
2022-09-03T06:26:06.145Z,4.33
2022-09-03T06:28:36.152Z,3.57
2022-09-03T06:31:05.479Z,3.50
2022-09-03T06:33:34.551Z,4.30
2022-09-03T06:36:08.556Z,4.20
2022-09-03T06:38:39.383Z,4.53
2022-09-03T06:41:09.127Z,4.90
2022-09-03T06:43:38.293Z,4.30
2022-09-03T06:46:08.012Z,4.47
2022-09-03T06:48:37.031Z,5.43
2022-09-03T06:51:06.521Z,5.97
2022-09-03T06:53:36.189Z,6.17
2022-09-03T06:56:07.697Z,6.07
2022-09-03T06:58:37.902Z,6.43
2022-09-03T07:01:07.411Z,6.03
2022-09-03T07:03:36.156Z,6.07
2022-09-03T07:06:05.336Z,4.63
2022-09-03T07:08:34.458Z,5.97
2022-09-03T07:11:08.999Z,5.90
2022-09-03T07:13:40.038Z,6.73
2022-09-03T07:16:09.719Z,5.87
2022-09-03T07:18:39.468Z,6.17
2022-09-03T07:21:09.085Z,5.73
2022-09-03T07:23:38.611Z,4.53
2022-09-03T07:26:08.324Z,5.07
2022-09-03T07:28:37.178Z,6.27
2022-09-03T07:31:08.367Z,16.57
2022-09-03T07:33:36.844Z,24.50
2022-09-03T07:36:06.238Z,5.67
2022-09-03T07:38:34.800Z,5.17
2022-09-03T07:41:04.384Z,5.53
2022-09-03T07:43:35.917Z,4.77
2022-09-03T07:46:04.311Z,4.70
2022-09-03T07:48:37.463Z,4.93
2022-09-03T07:51:06.206Z,4.87
2022-09-03T07:53:34.919Z,4.80
2022-09-03T07:56:03.795Z,4.80
2022-09-03T07:58:32.599Z,5.30
2022-09-03T08:01:01.709Z,4.43
2022-09-03T08:03:30.253Z,4.97
2022-09-03T08:06:04.080Z,4.73
2022-09-03T08:08:35.503Z,4.83
2022-09-03T08:11:10.971Z,5.57
2022-09-03T08:13:40.891Z,4.93
2022-09-03T08:16:09.510Z,5.97
2022-09-03T08:18:39.191Z,5.57
2022-09-03T08:21:10.331Z,5.53
2022-09-03T08:23:39.240Z,5.10
2022-09-03T08:26:08.217Z,5.60
2022-09-03T08:28:37.288Z,5.33
2022-09-03T08:31:10.201Z,5.57
2022-09-03T08:33:38.757Z,5.20
2022-09-03T08:36:10.350Z,5.83
2022-09-03T08:38:39.573Z,5.60
2022-09-03T08:41:10.346Z,5.40
2022-09-03T08:43:43.895Z,19.63
2022-09-03T08:46:12.910Z,22.17
2022-09-03T08:48:41.458Z,6.30
2022-09-03T08:51:12.794Z,5.37
2022-09-03T08:53:46.741Z,5.87
2022-09-03T08:56:16.768Z,5.23
2022-09-03T08:58:45.233Z,6.37
2022-09-03T09:01:16.209Z,5.73
2022-09-03T09:03:46.481Z,3.90
2022-09-03T09:06:20.613Z,4.97
2022-09-03T09:08:53.415Z,5.00
2022-09-03T09:11:29.464Z,5.07
2022-09-03T09:14:00.375Z,5.10
2022-09-03T09:16:32.436Z,5.50
2022-09-03T09:19:07.918Z,12.27
2022-09-03T09:21:41.412Z,7.07
2022-09-03T09:24:14.000Z,5.90
2022-09-03T09:26:43.147Z,6.13
2022-09-03T09:29:11.974Z,5.00
2022-09-03T09:31:42.018Z,4.83
2022-09-03T09:34:10.763Z,5.50
2022-09-03T09:36:45.569Z,4.50
2022-09-03T09:39:16.054Z,4.33
2022-09-03T09:41:45.107Z,3.95
2022-09-03T09:44:21.188Z,4.00
2022-09-03T09:46:54.178Z,3.78
2022-09-03T09:49:31.338Z,4.30
2022-09-03T09:52:05.290Z,4.30
2022-09-03T09:54:33.830Z,3.90
2022-09-03T09:57:03.732Z,4.03
2022-09-03T09:59:32.557Z,4.13
2022-09-03T10:02:13.787Z,4.90
2022-09-03T10:04:50.782Z,4.40
2022-09-03T10:07:30.325Z,4.90
2022-09-03T10:10:02.803Z,5.00
2022-09-03T10:12:36.016Z,4.57
2022-09-03T10:15:13.009Z,3.85
2022-09-03T10:17:47.009Z,5.45
2022-09-03T10:20:31.235Z,5.57
2022-09-03T10:23:02.710Z,4.88
2022-09-03T10:25:39.059Z,9.02
2022-09-03T10:28:08.799Z,9.20
2022-09-03T10:30:46.418Z,3.97
2022-09-03T10:33:19.102Z,3.25
2022-09-03T10:35:52.335Z,3.55
2022-09-03T10:38:28.125Z,3.50
2022-09-03T10:41:01.274Z,3.33
2022-09-03T10:43:37.748Z,3.55
2022-09-03T10:46:11.808Z,4.40
2022-09-03T10:48:58.876Z,4.45
2022-09-03T10:51:34.094Z,4.05
2022-09-03T10:54:08.110Z,3.42
2022-09-03T10:56:40.783Z,3.60
2022-09-03T10:59:17.099Z,3.80
2022-09-03T11:01:51.752Z,4.65
2022-09-03T11:04:24.229Z,3.97
2022-09-03T11:06:54.436Z,4.43
2022-09-03T11:09:27.619Z,5.93
2022-09-03T11:11:59.181Z,4.47
2022-09-03T11:14:34.146Z,4.70
2022-09-03T11:17:05.750Z,4.03
2022-09-03T11:19:36.733Z,4.00
2022-09-03T11:22:06.510Z,4.40
2022-09-03T11:24:37.377Z,5.03
2022-09-03T11:27:09.550Z,5.68
2022-09-03T11:29:43.522Z,4.60
2022-09-03T11:32:18.176Z,5.10
2022-09-03T11:34:48.360Z,4.88
2022-09-03T11:37:21.266Z,4.30
2022-09-03T11:39:58.601Z,4.22
2022-09-03T11:42:31.578Z,5.40
2022-09-03T11:45:15.216Z,4.60
2022-09-03T11:47:45.029Z,4.30
2022-09-03T11:50:21.395Z,4.95
2022-09-03T11:52:52.035Z,3.80
2022-09-03T11:55:32.639Z,3.20
2022-09-03T11:58:13.476Z,3.00
2022-09-03T12:00:44.585Z,2.85
2022-09-03T12:03:16.024Z,3.72
2022-09-03T12:05:48.309Z,3.03
2022-09-03T12:08:37.446Z,2.90
2022-09-03T12:11:17.230Z,2.97
2022-09-03T12:13:50.995Z,3.50
2022-09-03T12:16:34.353Z,2.90
2022-09-03T12:19:06.078Z,3.15
2022-09-03T12:21:41.140Z,2.60
2022-09-03T12:24:13.413Z,2.63
2022-09-03T12:26:44.759Z,2.38
2022-09-03T12:29:28.034Z,2.40
2022-09-03T12:31:57.546Z,2.35
2022-09-03T12:34:27.491Z,2.22
2022-09-03T12:36:56.472Z,2.30
2022-09-03T12:42:18.186Z,2.47
2022-09-03T12:44:46.679Z,2.85
2022-09-03T12:47:33.808Z,2.70
2022-09-03T12:50:08.394Z,2.60
2022-09-03T12:52:39.026Z,2.40
2022-09-03T12:55:12.602Z,2.33
2022-09-03T12:57:45.762Z,2.25
2022-09-03T13:00:16.409Z,2.85
2022-09-03T13:02:52.091Z,2.80
2022-09-03T13:05:21.719Z,2.97
2022-09-03T13:07:53.108Z,2.90
2022-09-03T13:10:26.249Z,2.85
2022-09-03T13:13:00.233Z,2.75
2022-09-03T13:15:28.959Z,3.72
2022-09-03T13:18:07.265Z,3.30
2022-09-03T13:20:37.911Z,3.30
2022-09-03T13:23:13.666Z,3.28
2022-09-03T13:25:49.011Z,3.10
2022-09-03T13:28:27.459Z,2.63
2022-09-03T13:30:57.641Z,2.40
2022-09-03T13:33:29.241Z,2.55
2022-09-03T13:36:02.291Z,2.17
2022-09-03T13:38:37.130Z,2.00
2022-09-03T13:41:11.134Z,1.80
2022-09-03T13:43:44.075Z,2.22
2022-09-03T13:46:15.143Z,2.20
2022-09-03T13:49:02.901Z,2.03
2022-09-03T13:51:34.168Z,1.85
2022-09-03T13:54:09.405Z,1.67
2022-09-03T13:56:39.879Z,1.90
2022-09-03T13:59:12.142Z,1.85
2022-09-03T14:02:00.000Z,1.92
2022-09-03T14:04:32.231Z,1.98
2022-09-03T14:07:02.524Z,1.77
2022-09-03T14:09:35.415Z,1.63
2022-09-03T14:12:06.395Z,1.67
2022-09-03T14:14:43.089Z,2.00
2022-09-03T14:17:15.382Z,1.70
2022-09-03T14:19:47.346Z,1.98
2022-09-03T14:22:18.183Z,1.92
2022-09-03T14:24:49.004Z,1.77
2022-09-03T14:27:25.346Z,1.60
2022-09-03T14:29:56.937Z,1.48
2022-09-03T14:32:29.748Z,1.35
2022-09-03T14:35:04.513Z,1.50
2022-09-03T14:37:43.789Z,1.13
2022-09-03T14:40:15.274Z,1.30
2022-09-03T14:43:02.275Z,1.40
2022-09-03T14:45:46.807Z,1.33
2022-09-03T14:48:28.217Z,1.40
2022-09-03T14:51:02.510Z,1.10
2022-09-03T14:53:42.379Z,1.48
2022-09-03T14:56:24.800Z,1.60
2022-09-03T14:59:07.062Z,1.50
2022-09-03T15:01:39.328Z,1.60
2022-09-03T15:04:26.069Z,1.60
2022-09-03T15:07:05.533Z,1.58
2022-09-03T15:09:37.218Z,1.60
2022-09-03T15:12:10.841Z,1.70
2022-09-03T15:14:41.652Z,1.60
2022-09-03T15:17:21.935Z,1.60
2022-09-03T15:19:56.958Z,1.80
2022-09-03T15:22:32.165Z,1.75
2022-09-03T15:25:07.884Z,1.73
2022-09-03T15:28:01.275Z,1.27
2022-09-03T15:30:35.768Z,1.90
2022-09-03T15:33:09.661Z,1.55
2022-09-03T15:35:44.934Z,2.03
2022-09-03T15:38:15.020Z,1.98
2022-09-03T15:40:50.998Z,1.75
2022-09-03T15:43:22.577Z,2.00
2022-09-03T15:45:57.698Z,2.00
2022-09-03T15:48:32.814Z,1.80
2022-09-03T15:51:10.061Z,1.88
2022-09-03T15:53:39.745Z,1.85
2022-09-03T15:56:13.911Z,1.95
2022-09-03T15:58:45.517Z,1.75
2022-09-03T16:01:21.474Z,1.90
2022-09-03T16:03:59.623Z,2.08
2022-09-03T16:06:38.141Z,1.90
2022-09-03T16:09:11.856Z,2.08
2022-09-03T16:11:47.403Z,1.90
2022-09-03T16:14:18.566Z,1.70
2022-09-03T16:16:54.759Z,1.50
2022-09-03T16:19:26.405Z,1.88
2022-09-03T16:21:59.088Z,2.05
2022-09-03T16:24:30.632Z,1.70
2022-09-03T16:27:02.277Z,1.90
2022-09-03T16:29:32.246Z,2.15
2022-09-03T16:32:09.288Z,1.98
2022-09-03T16:34:42.992Z,2.20
2022-09-03T16:37:16.632Z,2.50
2022-09-03T16:39:51.080Z,1.95
2022-09-03T16:42:24.901Z,2.17
2022-09-03T16:45:01.401Z,7.05
2022-09-03T16:47:35.774Z,7.50
2022-09-03T16:50:13.098Z,5.45
2022-09-03T16:52:48.684Z,4.00
2022-09-03T16:55:21.416Z,2.45
2022-09-03T16:57:57.382Z,2.30
2022-09-03T17:00:29.900Z,2.25
2022-09-03T17:03:12.700Z,2.17
2022-09-03T17:05:48.176Z,2.47
2022-09-03T17:08:21.611Z,2.45
2022-09-03T17:10:53.990Z,2.90
2022-09-03T17:13:35.068Z,2.90
2022-09-03T17:16:05.418Z,3.05
2022-09-03T17:18:38.473Z,2.97
2022-09-03T17:21:24.803Z,2.85
2022-09-03T17:24:10.843Z,2.45
2022-09-03T17:26:44.633Z,2.20
2022-09-03T17:29:26.265Z,2.55
2022-09-03T17:31:58.086Z,2.50
2022-09-03T17:34:33.577Z,2.70
2022-09-03T17:37:07.310Z,2.37
2022-09-03T17:39:47.240Z,2.42
2022-09-03T17:42:20.514Z,2.90
2022-09-03T17:44:52.376Z,3.10
2022-09-03T17:47:34.898Z,3.00
2022-09-03T17:50:09.185Z,3.95
2022-09-03T17:52:39.178Z,3.05
2022-09-03T17:55:14.238Z,2.22
2022-09-03T17:57:47.388Z,2.50
2022-09-03T18:00:23.998Z,2.30
2022-09-03T18:02:54.094Z,2.58
2022-09-03T18:05:24.253Z,2.33
2022-09-03T18:07:55.459Z,2.03
2022-09-03T18:10:28.199Z,2.10
2022-09-03T18:13:03.977Z,2.40
2022-09-03T18:15:34.819Z,2.10
2022-09-03T18:18:06.279Z,1.98
2022-09-03T18:21:22.004Z,2.20
2022-09-03T18:24:09.875Z,2.53
2022-09-03T18:27:00.438Z,2.17
2022-09-03T18:29:54.360Z,2.13
2022-09-03T18:32:40.682Z,2.13
2022-09-03T18:35:27.886Z,2.50
2022-09-03T18:38:13.761Z,2.20
2022-09-03T18:41:05.528Z,2.10
2022-09-03T18:43:59.600Z,2.15
2022-09-03T18:48:00.971Z,4.53
2022-09-03T18:50:00.567Z,2.50
2022-09-03T18:52:51.015Z,1.70
2022-09-03T18:55:39.603Z,1.87
2022-09-03T18:58:30.134Z,1.50
2022-09-03T19:01:23.224Z,1.95
2022-09-03T19:04:17.941Z,1.80
2022-09-03T19:07:08.024Z,1.47
2022-09-03T19:09:59.642Z,1.80
2022-09-03T19:12:58.885Z,1.70
2022-09-03T19:15:46.890Z,36.77
2022-09-03T19:18:40.034Z,20.50
2022-09-03T19:21:36.479Z,3.43
2022-09-03T19:24:22.880Z,2.17
2022-09-03T19:27:46.020Z,1.60
2022-09-03T19:30:24.402Z,1.60
2022-09-03T19:33:18.203Z,1.70
2022-09-03T19:36:08.785Z,1.87
2022-09-03T19:39:00.261Z,2.23
2022-09-03T19:41:49.484Z,2.10
2022-09-03T19:44:46.326Z,1.93
2022-09-03T19:47:37.922Z,1.87
2022-09-03T19:50:32.108Z,1.93
2022-09-03T19:53:19.614Z,2.03
2022-09-03T19:56:09.179Z,1.73
2022-09-03T19:58:56.323Z,1.60
2022-09-03T20:01:44.991Z,1.80
2022-09-03T20:04:32.176Z,1.60
2022-09-03T20:07:19.916Z,1.60
2022-09-03T20:10:06.428Z,1.60
2022-09-03T20:12:38.727Z,1.50
2022-09-03T20:15:07.955Z,1.43
2022-09-03T20:17:40.388Z,1.80
2022-09-03T20:20:14.284Z,1.77
2022-09-03T20:22:47.320Z,1.70
2022-09-03T20:25:34.288Z,1.60
2022-09-03T20:28:06.937Z,1.40
2022-09-03T20:30:39.405Z,1.50
2022-09-03T20:33:22.903Z,1.50
2022-09-03T20:35:58.967Z,1.83
2022-09-03T20:38:34.933Z,1.40
2022-09-03T20:41:09.541Z,1.70
2022-09-03T20:43:49.967Z,1.47
2022-09-03T20:46:27.738Z,1.70
2022-09-03T20:49:00.006Z,1.70
2022-09-03T20:51:34.591Z,1.47
2022-09-03T20:54:20.623Z,1.80
2022-09-03T20:56:57.755Z,1.83
2022-09-03T20:59:32.634Z,1.80
2022-09-03T21:02:04.077Z,1.70
2022-09-03T21:04:41.731Z,1.90
2022-09-03T21:07:13.755Z,1.70
2022-09-03T21:09:52.415Z,1.67
2022-09-03T21:12:27.707Z,1.93
2022-09-03T21:15:02.990Z,1.77
2022-09-03T21:17:37.719Z,1.57
2022-09-03T21:20:13.541Z,1.50
2022-09-03T21:22:45.723Z,1.50
2022-09-03T21:25:15.650Z,1.50
2022-09-03T21:27:48.295Z,1.67
2022-09-03T21:30:18.853Z,1.40
2022-09-03T21:32:50.524Z,1.80
2022-09-03T21:35:23.107Z,1.70
2022-09-03T21:37:53.293Z,1.60
2022-09-03T21:40:24.425Z,1.40
2022-09-03T21:42:59.776Z,1.70
2022-09-03T21:45:32.797Z,1.80
2022-09-03T21:48:03.711Z,1.60
2022-09-03T21:50:41.868Z,1.60
2022-09-03T21:53:13.892Z,1.60
2022-09-03T21:55:46.303Z,1.80
2022-09-03T21:58:21.751Z,1.70
2022-09-03T22:00:53.693Z,1.73
2022-09-03T22:03:22.207Z,1.77
2022-09-03T22:05:52.762Z,1.80
2022-09-03T22:08:25.552Z,2.13
2022-09-03T22:10:58.107Z,1.90
2022-09-03T22:13:30.159Z,1.83
2022-09-03T22:16:03.378Z,1.67
2022-09-03T22:18:36.519Z,1.60
2022-09-03T22:21:13.178Z,1.70
2022-09-03T22:23:45.670Z,1.60
2022-09-03T22:26:32.353Z,1.83
2022-09-03T22:29:08.066Z,1.70
2022-09-03T22:31:43.573Z,2.00
2022-09-03T22:34:20.589Z,1.70
2022-09-03T22:36:52.992Z,2.00
2022-09-03T22:39:29.028Z,1.90
2022-09-03T22:42:08.421Z,1.80
2022-09-03T22:44:55.182Z,1.60
2022-09-03T22:47:33.672Z,1.53
2022-09-03T22:50:09.986Z,1.80
2022-09-03T22:52:41.383Z,1.53
2022-09-03T22:55:17.637Z,1.50
2022-09-03T22:57:55.506Z,1.73
2022-09-03T23:00:24.105Z,1.50
2022-09-03T23:02:58.114Z,2.40
2022-09-03T23:05:34.048Z,1.90
2022-09-03T23:08:06.263Z,1.70
2022-09-03T23:10:36.299Z,1.63
2022-09-03T23:13:07.278Z,1.30
2022-09-03T23:15:37.637Z,1.77
2022-09-03T23:18:10.093Z,1.33
2022-09-03T23:20:40.812Z,1.80
2022-09-03T23:23:12.800Z,1.93
2022-09-03T23:25:44.694Z,1.30
2022-09-03T23:28:16.740Z,1.40
2022-09-03T23:30:45.278Z,1.67
2022-09-03T23:33:15.063Z,1.60
2022-09-03T23:35:48.758Z,1.80
2022-09-03T23:38:20.997Z,1.60
2022-09-03T23:40:49.975Z,1.60
2022-09-03T23:43:29.322Z,1.30
2022-09-03T23:46:03.549Z,1.67
2022-09-03T23:48:37.702Z,1.37
2022-09-03T23:51:12.078Z,1.60
2022-09-03T23:53:46.272Z,1.40
2022-09-03T23:56:29.551Z,1.50
2022-09-03T23:59:03.273Z,1.83
